Time;durP1;ratioP1;P1;durP2;ratioP2;P2;SDS_P1;SDS_P2;PMS_P1;PMS_P2;Temp;Humidity;BMP_temperature;BMP_pressure;BME280_temperature;BME280_humidity;BME280_pressure;Samples;Min_cycle;Max_cycle;Signal;HPM_P1;HPM_P2
2023/10/15 00:01:59;;;;;;;1.45;1.08;;;;;;;8.58;83.76;100612.13;5052968;28;20729;-69
2023/10/15 00:04:28;;;;;;;4.82;1.55;;;;;;;8.50;83.76;100621.22;5051970;28;20192;-69
2023/10/15 00:06:59;;;;;;;2.85;1.25;;;;;;;8.49;83.89;100619.53;5047219;28;20207;-69
2023/10/15 00:09:27;;;;;;;1.00;0.85;;;;;;;8.49;84.08;100624.09;5057366;28;20203;-66
2023/10/15 00:11:57;;;;;;;2.75;0.88;;;;;;;8.49;84.08;100624.09;5058733;28;20239;-67
2023/10/15 00:14:25;;;;;;;1.20;0.93;;;;;;;8.50;83.52;100625.75;5052746;28;20568;-69
2023/10/15 00:16:59;;;;;;;4.90;1.10;;;;;;;8.42;84.25;100629.44;5056023;28;20194;-68
2023/10/15 00:19:28;;;;;;;1.65;1.10;;;;;;;8.44;84.13;100630.06;5063643;28;20188;-67
2023/10/15 00:22:00;;;;;;;1.95;1.13;;;;;;;8.38;84.81;100632.69;5057152;28;20290;-68
2023/10/15 00:24:29;;;;;;;2.08;1.88;;;;;;;8.26;85.53;100625.13;5053485;28;20217;-68
2023/10/15 00:26:58;;;;;;;3.38;0.90;;;;;;;8.36;84.98;100634.78;5050083;28;20275;-68
2023/10/15 00:29:27;;;;;;;1.10;0.98;;;;;;;8.38;84.50;100624.59;5061141;28;20180;-68
2023/10/15 00:31:56;;;;;;;1.65;0.70;;;;;;;8.27;84.70;100632.19;5049782;28;20581;-69
2023/10/15 00:34:26;;;;;;;2.17;1.98;;;;;;;8.16;86.14;100626.47;5052167;28;20246;-67
2023/10/15 00:36:55;;;;;;;1.00;0.80;;;;;;;8.32;85.05;100625.41;5054574;28;20201;-68
2023/10/15 00:39:26;;;;;;;2.17;0.98;;;;;;;8.25;84.78;100626.13;5057153;28;20534;-68
2023/10/15 00:41:58;;;;;;;2.85;1.48;;;;;;;8.25;84.79;100614.53;5055841;28;20639;-67
2023/10/15 00:44:27;;;;;;;1.42;0.70;;;;;;;8.21;85.13;100622.16;5055752;28;20204;-68
2023/10/15 00:46:56;;;;;;;1.35;0.60;;;;;;;8.19;85.63;100621.50;5057090;28;20280;-69
2023/10/15 00:49:26;;;;;;;9.98;2.25;;;;;;;8.20;85.08;100623.19;5050465;28;20238;-67
2023/10/15 00:51:56;;;;;;;3.25;0.98;;;;;;;8.17;85.16;100631.69;5052905;28;20218;-69
2023/10/15 00:54:26;;;;;;;1.10;0.70;;;;;;;8.25;84.64;100633.41;5054598;28;20189;-67
2023/10/15 00:56:56;;;;;;;3.67;1.20;;;;;;;8.22;84.71;100645.41;5049570;28;20197;-68
2023/10/15 00:59:43;;;;;;;1.00;0.70;;;;;;;8.18;85.19;100637.91;5052202;28;20191;-67
2023/10/15 01:02:12;;;;;;;8.75;1.13;;;;;;;8.15;85.32;100644.50;5052794;28;20208;-69
2023/10/15 01:04:43;;;;;;;2.00;0.85;;;;;;;8.14;86.10;100637.44;5050817;28;20211;-68
2023/10/15 01:07:22;;;;;;;8.73;0.90;;;;;;;8.16;85.01;100634.56;5052512;28;20266;-69
2023/10/15 01:09:52;;;;;;;1.58;0.85;;;;;;;8.20;84.85;100636.66;5049114;28;20212;-68
2023/10/15 01:12:30;;;;;;;1.58;1.23;;;;;;;8.11;86.10;100637.81;5049348;28;20236;-68
2023/10/15 01:15:00;;;;;;;2.00;1.00;;;;;;;8.10;84.96;100633.47;5058660;28;20204;-69
2023/10/15 01:17:37;;;;;;;3.50;1.52;;;;;;;8.13;84.48;100640.34;5052659;28;20239;-68
2023/10/15 01:20:09;;;;;;;0.90;0.50;;;;;;;8.06;85.24;100634.88;5059040;28;20204;-67
2023/10/15 01:22:39;;;;;;;3.65;0.90;;;;;;;8.04;85.39;100631.53;5048864;28;20275;-67
2023/10/15 01:25:19;;;;;;;2.17;1.02;;;;;;;7.97;85.86;100635.19;5046851;28;20196;-67
2023/10/15 01:27:48;;;;;;;1.60;1.17;;;;;;;7.94;86.45;100631.00;5060036;28;20257;-67
2023/10/15 01:30:18;;;;;;;1.95;1.85;;;;;;;8.05;85.66;100632.38;5049730;28;20612;-68
2023/10/15 01:32:46;;;;;;;1.35;0.60;;;;;;;8.07;84.86;100638.41;5052615;28;20209;-68
2023/10/15 01:35:19;;;;;;;1.90;0.70;;;;;;;8.05;84.50;100633.19;5055893;28;20196;-68
2023/10/15 01:37:59;;;;;;;1.70;0.73;;;;;;;7.99;85.11;100633.16;5051421;28;20228;-69
2023/10/15 01:40:37;;;;;;;6.13;1.70;;;;;;;7.97;85.46;100636.03;5041872;28;20193;-67
2023/10/15 01:43:12;;;;;;;1.15;0.70;;;;;;;7.94;85.99;100646.38;5051374;28;20236;-69
2023/10/15 01:45:47;;;;;;;2.55;0.80;;;;;;;7.91;86.57;100636.78;5058970;28;20245;-69
2023/10/15 01:48:18;;;;;;;7.10;0.98;;;;;;;7.91;85.68;100636.78;5047626;28;20208;-68
2023/10/15 01:50:49;;;;;;;6.45;1.40;;;;;;;7.91;85.50;100636.78;5052661;28;20753;-68
2023/10/15 01:53:23;;;;;;;2.00;0.90;;;;;;;7.91;86.46;100646.72;5049767;28;20682;-69
2023/10/15 01:56:02;;;;;;;2.75;1.58;;;;;;;7.86;85.99;100650.00;5047599;28;20201;-69
2023/10/15 01:58:32;;;;;;;1.10;0.70;;;;;;;7.78;87.33;100659.03;5053445;28;20191;-67
2023/10/15 02:01:20;;;;;;;5.43;1.20;;;;;;;7.77;86.81;100657.34;5059483;28;20193;-68
2023/10/15 02:03:49;;;;;;;5.75;1.50;;;;;;;7.80;87.20;100653.44;5046278;28;20239;-69
2023/10/15 02:06:19;;;;;;;1.70;0.93;;;;;;;7.97;85.87;100662.13;5052716;28;20208;-69
2023/10/15 02:08:51;;;;;;;1.38;1.27;;;;;;;8.06;86.07;100661.81;5061006;28;20204;-69
2023/10/15 02:11:22;;;;;;;1.30;1.02;;;;;;;8.11;84.72;100662.09;5060742;28;20198;-68
2023/10/15 02:13:55;;;;;;;1.30;0.85;;;;;;;8.19;84.12;100667.34;5048761;28;20200;-68
2023/10/15 02:16:32;;;;;;;2.28;0.70;;;;;;;8.26;83.66;100660.16;5046088;28;20185;-69
2023/10/15 02:19:07;;;;;;;0.80;0.50;;;;;;;8.42;82.54;100660.97;5053556;28;20196;-68
2023/10/15 02:21:49;;;;;;;1.30;1.08;;;;;;;8.45;82.58;100657.88;5050713;28;20235;-70
2023/10/15 02:24:18;;;;;;;1.13;0.80;;;;;;;8.50;81.18;100655.44;5049397;28;20255;-68
2023/10/15 02:26:48;;;;;;;13.85;2.08;;;;;;;8.61;81.24;100665.69;5054613;28;20207;-68
2023/10/15 02:29:34;;;;;;;1.70;0.85;;;;;;;8.61;81.24;100668.41;5052981;28;20398;-67
2023/10/15 02:32:20;;;;;;;1.77;0.95;;;;;;;8.64;79.80;100676.09;5050758;28;21181;-68
2023/10/15 02:34:51;;;;;;;4.30;1.33;;;;;;;8.65;81.23;100662.41;5052552;28;20254;-68
2023/10/15 02:37:26;;;;;;;1.00;0.60;;;;;;;8.70;80.00;100667.22;5051627;28;20205;-68
2023/10/15 02:39:56;;;;;;;4.78;1.10;;;;;;;8.66;80.43;100680.28;5048959;28;20192;-67
2023/10/15 02:42:31;;;;;;;3.22;1.25;;;;;;;8.55;80.45;100671.88;5056025;28;20205;-69
2023/10/15 02:45:06;;;;;;;2.92;1.08;;;;;;;8.37;81.44;100664.25;5053077;28;20216;-69
2023/10/15 02:47:41;;;;;;;1.55;0.60;;;;;;;8.29;82.55;100664.31;5047635;28;20196;-67
2023/10/15 02:50:16;;;;;;;2.38;1.00;;;;;;;8.25;82.76;100669.28;5058881;28;20215;-66
2023/10/15 02:52:45;;;;;;;2.47;0.60;;;;;;;8.19;82.83;100667.34;5047868;28;20230;-68
2023/10/15 02:55:26;;;;;;;1.00;0.50;;;;;;;8.09;83.71;100657.91;5048985;28;20267;-68
2023/10/15 02:58:02;;;;;;;1.30;0.63;;;;;;;7.97;84.81;100662.97;5052815;28;20192;-67
2023/10/15 03:00:32;;;;;;;5.05;2.47;;;;;;;7.88;86.07;100669.50;5043316;28;20181;-66
2023/10/15 03:03:07;;;;;;;3.55;2.05;;;;;;;7.79;85.51;100670.66;5043737;28;20288;-68
2023/10/15 03:05:40;;;;;;;1.88;1.10;;;;;;;7.70;87.99;100671.75;5050928;28;20195;-68
2023/10/15 03:08:17;;;;;;;2.10;0.75;;;;;;;7.64;86.82;100677.91;5054064;28;20573;-68
2023/10/15 03:10:47;;;;;;;1.35;0.70;;;;;;;7.58;87.69;100673.28;5053567;28;20216;-66
2023/10/15 03:13:18;;;;;;;1.25;0.75;;;;;;;7.54;87.85;100675.53;5048136;28;20642;-67
2023/10/15 03:15:49;;;;;;;1.42;0.77;;;;;;;7.51;88.36;100683.97;5048850;28;20663;-67
2023/10/15 03:18:23;;;;;;;5.05;1.42;;;;;;;7.43;88.62;100679.53;5047722;28;20192;-67
2023/10/15 03:21:01;;;;;;;3.30;0.88;;;;;;;7.42;89.01;100680.53;5052013;28;20634;-67
2023/10/15 03:23:34;;;;;;;0.90;0.50;;;;;;;7.31;89.13;100683.69;5048275;28;20212;-67
2023/10/15 03:26:03;;;;;;;3.75;1.40;;;;;;;7.36;89.83;100692.03;5055387;28;20193;-67
2023/10/15 03:28:36;;;;;;;6.30;1.20;;;;;;;7.55;88.41;100684.44;5058267;28;20219;-67
2023/10/15 03:31:06;;;;;;;3.53;1.25;;;;;;;7.56;88.73;100688.78;5047817;28;20250;-68
2023/10/15 03:33:35;;;;;;;1.23;0.98;;;;;;;7.47;88.12;100681.81;5055088;28;20531;-68
2023/10/15 03:36:12;;;;;;;1.20;0.80;;;;;;;7.43;88.60;100682.22;5050308;28;20582;-68
2023/10/15 03:38:46;;;;;;;4.60;1.30;;;;;;;7.37;88.46;100687.50;5056400;28;20215;-68
2023/10/15 03:41:21;;;;;;;1.25;0.77;;;;;;;7.32;88.98;100696.13;5050663;28;20200;-67
2023/10/15 03:43:52;;;;;;;4.40;1.05;;;;;;;7.30;89.19;100687.41;5049867;28;20222;-67
2023/10/15 03:46:25;;;;;;;8.43;1.02;;;;;;;7.38;88.47;100690.00;5046642;28;20181;-67
2023/10/15 03:48:54;;;;;;;8.32;1.30;;;;;;;7.33;88.44;100692.44;5051249;28;20196;-67
2023/10/15 03:51:23;;;;;;;1.27;0.93;;;;;;;7.29;88.88;100691.13;5054844;28;20245;-68
2023/10/15 03:53:52;;;;;;;0.90;0.57;;;;;;;7.29;89.37;100683.06;5044639;28;20204;-66
2023/10/15 03:56:27;;;;;;;3.53;2.42;;;;;;;7.30;88.59;100682.03;5052283;28;20246;-67
2023/10/15 03:58:57;;;;;;;0.90;0.60;;;;;;;7.27;88.70;100686.94;5056440;28;20192;-67
2023/10/15 04:01:28;;;;;;;1.48;1.10;;;;;;;7.26;89.23;100679.91;5051283;28;20193;-69
2023/10/15 04:04:02;;;;;;;0.93;0.57;;;;;;;7.23;89.23;100681.09;5050573;28;20206;-68
2023/10/15 04:06:34;;;;;;;3.40;0.98;;;;;;;7.22;89.55;100678.59;5048976;28;20185;-69
2023/10/15 04:09:09;;;;;;;2.05;1.00;;;;;;;7.21;89.65;100675.06;5042726;28;20663;-67
2023/10/15 04:11:44;;;;;;;3.72;1.60;;;;;;;7.19;89.05;100678.97;5047502;28;20239;-69
2023/10/15 04:14:21;;;;;;;1.85;1.23;;;;;;;7.10;89.96;100680.09;5053623;28;20210;-67
2023/10/15 04:16:51;;;;;;;4.00;1.05;;;;;;;7.12;89.49;100670.78;5054772;28;20202;-67
2023/10/15 04:19:20;;;;;;;1.20;0.70;;;;;;;7.08;90.24;100666.81;5050030;28;20655;-67
2023/10/15 04:21:52;;;;;;;0.80;0.60;;;;;;;7.08;89.90;100669.50;5038671;28;20227;-66
2023/10/15 04:24:33;;;;;;;0.80;0.60;;;;;;;6.96;90.36;100660.22;5046602;28;20219;-67
2023/10/15 04:27:01;;;;;;;3.17;1.08;;;;;;;6.92;91.54;100656.22;5053424;28;20195;-67
2023/10/15 04:29:32;;;;;;;1.05;0.60;;;;;;;6.97;91.48;100646.56;5044692;28;20218;-67
2023/10/15 04:32:03;;;;;;;1.35;0.88;;;;;;;6.97;90.78;100649.25;5040686;28;20621;-68
2023/10/15 04:34:33;;;;;;;2.65;2.17;;;;;;;7.00;90.83;100642.69;5046269;28;20197;-68
2023/10/15 04:37:07;;;;;;;1.10;0.80;;;;;;;7.00;90.67;100640.00;5047183;28;20650;-68
2023/10/15 04:39:47;;;;;;;3.58;1.00;;;;;;;6.96;90.51;100636.84;5044557;28;20644;-68
2023/10/15 04:42:37;;;;;;;3.30;1.63;;;;;;;6.94;91.09;100635.34;5047108;28;20272;-68
2023/10/15 04:45:20;;;;;;;0.90;0.60;;;;;;;6.94;91.26;100635.34;5051092;28;20199;-67
2023/10/15 04:47:59;;;;;;;1.75;1.05;;;;;;;6.94;91.16;100632.66;5044877;28;20726;-67
2023/10/15 04:50:29;;;;;;;11.65;1.30;;;;;;;6.92;92.00;100635.53;5043103;28;20207;-68
2023/10/15 04:53:12;;;;;;;2.88;0.95;;;;;;;6.83;92.13;100638.47;5054818;28;20254;-68
2023/10/15 04:55:42;;;;;;;1.30;0.88;;;;;;;6.78;92.24;100632.81;5045716;28;20193;-67
2023/10/15 04:58:11;;;;;;;3.67;0.80;;;;;;;6.76;93.36;100632.19;5058532;28;20192;-67
2023/10/15 05:00:43;;;;;;;2.60;1.17;;;;;;;6.71;92.84;100640.81;5049591;28;20199;-68
2023/10/15 05:03:14;;;;;;;2.13;0.80;;;;;;;6.68;94.04;100638.47;5057394;28;20631;-68
2023/10/15 05:05:44;;;;;;;17.20;1.65;;;;;;;6.64;94.01;100639.00;5052551;28;20239;-68
2023/10/15 05:08:17;;;;;;;1.15;0.88;;;;;;;6.77;93.05;100647.31;5053949;28;20247;-68
2023/10/15 05:10:50;;;;;;;1.00;0.70;;;;;;;6.68;93.76;100648.41;5058427;28;20204;-65
2023/10/15 05:13:20;;;;;;;1.70;0.68;;;;;;;6.62;93.98;100654.50;5046174;28;20217;-67
2023/10/15 05:15:51;;;;;;;3.20;2.08;;;;;;;6.63;94.02;100656.19;5053837;28;20684;-68
2023/10/15 05:18:20;;;;;;;1.63;1.38;;;;;;;6.70;93.81;100663.34;5059458;28;20250;-68
2023/10/15 05:20:50;;;;;;;2.03;1.67;;;;;;;6.65;94.72;100660.34;5048255;28;20567;-68
2023/10/15 05:23:20;;;;;;;1.48;0.95;;;;;;;6.56;95.33;100661.44;5053590;28;20212;-68
2023/10/15 05:25:49;;;;;;;0.95;0.70;;;;;;;6.43;96.25;100664.75;5056704;28;20241;-68
2023/10/15 05:28:19;;;;;;;4.22;2.10;;;;;;;6.46;96.27;100664.38;5049705;28;20270;-66
2023/10/15 05:30:49;;;;;;;3.95;1.42;;;;;;;6.49;96.34;100666.69;5060174;28;20219;-67
2023/10/15 05:33:20;;;;;;;15.55;1.67;;;;;;;6.49;96.44;100671.25;5053941;28;20229;-67
2023/10/15 05:35:49;;;;;;;3.35;0.88;;;;;;;6.53;96.99;100662.63;5055807;28;20611;-68
2023/10/15 05:38:18;;;;;;;0.90;0.50;;;;;;;6.56;96.58;100669.50;5041609;28;20602;-68
2023/10/15 05:40:47;;;;;;;3.97;0.85;;;;;;;6.58;95.80;100664.81;5052566;28;20239;-68
2023/10/15 05:43:17;;;;;;;1.13;0.70;;;;;;;6.55;95.84;100679.44;5050247;28;20205;-67
2023/10/15 05:45:47;;;;;;;1.20;0.75;;;;;;;6.57;96.06;100678.41;5050363;28;20267;-68
2023/10/15 05:48:18;;;;;;;2.13;1.48;;;;;;;6.61;96.00;100668.97;5052030;28;20185;-68
2023/10/15 05:50:51;;;;;;;3.17;1.42;;;;;;;6.68;95.24;100681.47;5056618;28;20643;-67
2023/10/15 05:53:20;;;;;;;0.90;0.60;;;;;;;6.78;94.73;100683.91;5052721;28;20223;-67
2023/10/15 05:55:49;;;;;;;1.73;1.05;;;;;;;6.76;94.19;100685.97;5053788;28;20193;-68
2023/10/15 05:58:17;;;;;;;2.00;1.08;;;;;;;6.79;94.11;100672.97;5051380;28;20185;-68
2023/10/15 06:00:46;;;;;;;1.20;0.65;;;;;;;6.88;94.10;100687.19;5050406;28;20263;-68
2023/10/15 06:03:15;;;;;;;1.10;0.52;;;;;;;6.92;93.16;100670.50;5046559;28;20220;-66
2023/10/15 06:05:46;;;;;;;2.38;1.02;;;;;;;6.99;94.13;100679.50;5054583;28;20591;-70
2023/10/15 06:08:15;;;;;;;13.13;1.58;;;;;;;6.99;93.36;100665.22;5052233;28;20197;-66
2023/10/15 06:10:43;;;;;;;1.15;1.05;;;;;;;7.07;92.09;100675.06;5056242;28;20224;-68
2023/10/15 06:13:12;;;;;;;12.20;1.05;;;;;;;7.06;91.76;100670.72;5050894;28;20204;-68
2023/10/15 06:15:41;;;;;;;2.28;1.30;;;;;;;7.13;92.36;100679.69;5047679;28;20181;-68
2023/10/15 06:18:10;;;;;;;1.00;0.80;;;;;;;7.10;91.34;100669.31;5043467;28;20287;-68
2023/10/15 06:20:39;;;;;;;0.90;0.70;;;;;;;7.13;92.00;100675.16;5045794;28;20202;-68
2023/10/15 06:23:10;;;;;;;2.65;0.93;;;;;;;7.20;91.08;100680.63;5054761;28;20231;-67
2023/10/15 06:25:39;;;;;;;1.70;1.10;;;;;;;7.26;91.13;100686.09;5046236;28;20207;-68
2023/10/15 06:28:13;;;;;;;3.90;1.25;;;;;;;7.24;91.43;100685.47;5051554;28;20276;-69
2023/10/15 06:30:43;;;;;;;1.45;1.35;;;;;;;7.26;90.37;100683.41;5052314;28;20207;-67
2023/10/15 06:33:13;;;;;;;10.10;2.40;;;;;;;7.22;91.02;100692.88;5050879;28;20208;-67
2023/10/15 06:35:43;;;;;;;1.88;1.15;;;;;;;7.28;91.69;100697.53;5054757;28;20655;-69
2023/10/15 06:38:17;;;;;;;1.10;0.80;;;;;;;7.34;91.37;100704.88;5041416;28;20546;-69
2023/10/15 06:40:46;;;;;;;11.25;2.00;;;;;;;7.43;90.30;100709.13;5050255;28;20698;-68
2023/10/15 06:43:16;;;;;;;1.00;0.82;;;;;;;7.46;89.76;100696.31;5051967;28;20208;-68
2023/10/15 06:45:44;;;;;;;1.85;0.63;;;;;;;7.54;89.37;100709.69;5044441;28;20246;-67
2023/10/15 06:48:13;;;;;;;6.25;1.40;;;;;;;7.59;88.96;100712.66;5054292;28;20319;-68
2023/10/15 06:50:43;;;;;;;1.00;0.63;;;;;;;7.62;88.92;100707.72;5050498;28;20197;-68
2023/10/15 06:53:13;;;;;;;2.08;1.02;;;;;;;7.72;88.54;100707.44;5047978;28;20209;-67
2023/10/15 06:55:45;;;;;;;4.20;0.93;;;;;;;7.70;87.82;100702.22;5039526;28;20247;-68
2023/10/15 06:58:15;;;;;;;2.65;1.08;;;;;;;7.78;87.48;100698.59;5045393;28;20185;-68
2023/10/15 07:00:43;;;;;;;4.57;1.33;;;;;;;7.87;87.28;100716.31;5048199;28;20663;-68
2023/10/15 07:03:15;;;;;;;2.28;1.42;;;;;;;7.85;86.28;100715.66;5052786;28;20258;-68
2023/10/15 07:05:45;;;;;;;7.63;1.10;;;;;;;7.90;85.70;100720.50;5046653;28;20564;-67
2023/10/15 07:08:15;;;;;;;6.07;2.08;;;;;;;7.93;86.45;100712.88;5049761;28;20255;-67
2023/10/15 07:10:45;;;;;;;1.42;0.60;;;;;;;8.05;85.62;100722.13;5052514;28;20655;-66
2023/10/15 07:13:14;;;;;;;1.02;0.68;;;;;;;8.20;84.93;100730.19;5049659;28;20309;-69
2023/10/15 07:15:45;;;;;;;1.00;0.70;;;;;;;8.16;85.11;100723.50;5051518;28;20616;-69
2023/10/15 07:18:14;;;;;;;4.03;1.25;;;;;;;8.14;83.47;100729.06;5051237;28;20238;-68
2023/10/15 07:20:43;;;;;;;1.52;0.75;;;;;;;8.16;84.45;100732.44;5045397;28;20192;-69
2023/10/15 07:23:14;;;;;;;0.90;0.60;;;;;;;8.33;84.57;100743.00;5051354;28;20258;-69
2023/10/15 07:25:45;;;;;;;3.28;1.70;;;;;;;8.53;83.69;100744.88;5053399;28;20273;-68
2023/10/15 07:28:19;;;;;;;0.80;0.50;;;;;;;8.65;82.29;100742.50;5048423;28;20189;-68
2023/10/15 07:30:50;;;;;;;6.22;0.98;;;;;;;8.62;82.05;100749.09;5053627;28;20203;-66
2023/10/15 07:33:20;;;;;;;2.65;0.70;;;;;;;8.53;82.50;100757.50;5051594;28;20320;-67
2023/10/15 07:35:49;;;;;;;3.90;1.25;;;;;;;8.43;82.87;100748.91;5052314;28;20562;-68
2023/10/15 07:38:19;;;;;;;1.70;0.80;;;;;;;8.43;83.12;100748.91;5047613;28;20724;-67
2023/10/15 07:40:48;;;;;;;1.17;0.80;;;;;;;8.52;83.22;100753.16;5049032;28;20187;-68
2023/10/15 07:43:17;;;;;;;1.25;0.70;;;;;;;8.53;82.00;100749.41;5049426;28;20212;-68
2023/10/15 07:45:45;;;;;;;1.48;0.82;;;;;;;8.78;82.27;100748.00;5052482;28;20180;-68
2023/10/15 07:48:14;;;;;;;5.07;2.88;;;;;;;8.76;80.73;100758.19;5049232;28;20543;-68
2023/10/15 07:50:45;;;;;;;3.60;1.17;;;;;;;8.68;81.37;100759.13;5054098;28;20204;-69
2023/10/15 07:53:14;;;;;;;1.00;0.68;;;;;;;8.78;81.13;100756.09;5046237;28;20258;-67
2023/10/15 07:55:44;;;;;;;6.68;0.80;;;;;;;8.85;80.86;100754.31;5053259;28;20254;-68
2023/10/15 07:58:13;;;;;;;1.45;0.90;;;;;;;8.92;80.71;100755.19;5048590;28;20193;-69
2023/10/15 08:00:44;;;;;;;1.77;0.70;;;;;;;8.85;80.06;100757.00;5051444;28;20253;-68
2023/10/15 08:03:26;;;;;;;4.43;0.70;;;;;;;8.97;79.44;100760.84;5046135;28;20212;-68
2023/10/15 08:05:55;;;;;;;2.17;0.88;;;;;;;9.14;79.31;100764.09;5048329;28;20669;-68
2023/10/15 08:08:24;;;;;;;2.15;1.13;;;;;;;9.46;77.78;100759.94;5042563;28;20545;-67
2023/10/15 08:10:55;;;;;;;3.45;0.65;;;;;;;9.51;76.17;100768.28;5045329;28;20588;-68
2023/10/15 08:13:24;;;;;;;3.28;0.70;;;;;;;9.48;76.39;100777.66;5051068;28;20217;-67
2023/10/15 08:15:54;;;;;;;1.40;0.90;;;;;;;9.58;75.87;100771.88;5045992;28;20289;-67
2023/10/15 08:18:24;;;;;;;4.35;1.27;;;;;;;9.69;75.72;100767.78;5048095;28;20180;-67
2023/10/15 08:20:54;;;;;;;4.40;0.85;;;;;;;9.86;75.19;100769.13;5048725;28;20201;-67
2023/10/15 08:23:23;;;;;;;3.28;0.70;;;;;;;9.78;74.55;100769.31;5050736;28;20208;-68
2023/10/15 08:25:54;;;;;;;1.23;0.68;;;;;;;9.70;73.75;100783.78;5044615;28;20671;-68
2023/10/15 08:28:26;;;;;;;6.43;1.10;;;;;;;9.40;74.45;100777.78;5050546;28;20195;-68
2023/10/15 08:30:55;;;;;;;3.28;1.02;;;;;;;9.77;74.38;100786.53;5043500;28;20192;-66
2023/10/15 08:33:24;;;;;;;1.58;0.75;;;;;;;9.94;73.22;100788.69;5053098;28;20213;-68
2023/10/15 08:35:53;;;;;;;1.67;0.82;;;;;;;10.34;72.67;100799.72;5048168;28;20189;-69
2023/10/15 08:38:22;;;;;;;1.53;0.80;;;;;;;10.34;72.21;100788.91;5041432;28;20580;-68
2023/10/15 08:40:53;;;;;;;3.33;1.03;;;;;;;10.10;71.61;100789.41;5050841;28;20437;-67
2023/10/15 08:43:29;;;;;;;1.47;0.80;;;;;;;10.20;72.49;100792.59;5049889;28;20448;-68
2023/10/15 08:46:00;;;;;;;1.52;0.60;;;;;;;10.26;71.71;100789.09;5044299;28;20481;-67
2023/10/15 08:48:30;;;;;;;0.80;0.55;;;;;;;10.15;71.17;100801.28;5053991;28;20196;-65
2023/10/15 08:51:01;;;;;;;3.00;0.80;;;;;;;10.04;71.93;100802.69;5051350;28;20667;-69
2023/10/15 08:53:31;;;;;;;0.98;0.60;;;;;;;9.98;72.13;100797.25;5050703;28;20526;-68
2023/10/15 08:56:01;;;;;;;3.38;0.90;;;;;;;10.11;71.79;100788.38;5045504;28;20189;-69
2023/10/15 08:58:33;;;;;;;1.38;0.85;;;;;;;10.27;70.75;100794.28;5052540;28;20201;-67
2023/10/15 09:01:03;;;;;;;1.90;0.98;;;;;;;10.44;69.58;100792.06;5057208;28;20197;-67
2023/10/15 09:03:32;;;;;;;1.97;0.50;;;;;;;10.75;68.88;100797.72;5052291;28;20690;-68
2023/10/15 09:06:05;;;;;;;2.03;1.00;;;;;;;11.11;67.93;100810.06;5051372;28;20938;-67
2023/10/15 09:08:35;;;;;;;2.03;1.17;;;;;;;11.42;66.37;100810.28;5059719;28;20192;-68
2023/10/15 09:11:04;;;;;;;1.60;0.83;;;;;;;11.40;66.44;100815.06;5052439;28;20440;-67
2023/10/15 09:13:36;;;;;;;1.00;0.70;;;;;;;11.18;66.23;100813.63;5045977;28;21033;-68
2023/10/15 09:16:06;;;;;;;2.10;1.10;;;;;;;10.64;67.01;100830.00;5048004;28;20443;-69
2023/10/15 09:18:36;;;;;;;1.00;0.50;;;;;;;10.08;68.90;100821.19;5043933;28;20470;-67
2023/10/15 09:21:05;;;;;;;1.00;0.90;;;;;;;10.03;70.70;100825.34;5045378;28;20463;-69
2023/10/15 09:23:36;;;;;;;0.90;0.70;;;;;;;10.30;69.55;100820.94;5046555;28;20443;-67
2023/10/15 09:26:07;;;;;;;2.00;0.90;;;;;;;10.23;69.23;100830.03;5052393;28;20976;-69
2023/10/15 09:28:38;;;;;;;0.90;0.50;;;;;;;10.42;69.45;100829.28;5048612;28;20442;-68
2023/10/15 09:31:09;;;;;;;1.03;0.70;;;;;;;10.78;68.04;100839.81;5056234;28;20437;-66
2023/10/15 09:33:39;;;;;;;1.20;0.70;;;;;;;11.03;68.44;100832.78;5050931;28;20527;-69
2023/10/15 09:36:08;;;;;;;1.57;1.17;;;;;;;10.84;66.80;100833.59;5056103;28;20484;-69
2023/10/15 09:38:37;;;;;;;0.90;0.50;;;;;;;10.82;67.40;100831.06;5049908;28;20796;-68
2023/10/15 09:41:06;;;;;;;2.93;0.70;;;;;;;11.27;67.02;100842.19;5052541;28;20805;-68
2023/10/15 09:43:37;;;;;;;1.30;1.10;;;;;;;11.55;65.81;100836.53;5042614;28;20973;-67
2023/10/15 09:46:07;;;;;;;1.07;0.70;;;;;;;11.04;65.90;100849.84;5045735;28;20839;-68
2023/10/15 09:48:37;;;;;;;1.00;0.83;;;;;;;10.69;66.95;100843.75;5053817;28;20489;-69
2023/10/15 09:51:11;;;;;;;3.17;0.70;;;;;;;10.73;67.49;100850.41;5050638;28;20432;-68
2023/10/15 09:53:42;;;;;;;0.90;0.60;;;;;;;10.91;67.19;100847.97;5050233;28;20473;-67
2023/10/15 09:56:13;;;;;;;1.17;0.87;;;;;;;11.03;66.57;100853.63;5047388;28;20407;-68
2023/10/15 09:58:44;;;;;;;0.80;0.50;;;;;;;10.78;66.12;100859.59;5047687;28;20492;-68
2023/10/15 10:01:26;;;;;;;0.90;0.70;;;;;;;10.73;66.12;100859.38;5055807;28;20427;-66
2023/10/15 10:04:42;;;;;;;0.80;0.40;;;;;;;10.63;66.80;100864.34;5054123;28;20775;-66
2023/10/15 10:07:30;;;;;;;1.10;0.60;;;;;;;11.15;67.45;100873.63;5051064;28;20419;-67
2023/10/15 10:10:32;;;;;;;1.00;0.80;;;;;;;10.68;66.46;100859.16;5046182;28;20424;-69
2023/10/15 10:13:40;;;;;;;1.20;0.73;;;;;;;10.63;67.54;100869.75;5051877;28;20552;-68
2023/10/15 10:16:22;;;;;;;1.33;0.50;;;;;;;10.34;68.27;100864.63;4992631;28;20209;-68
2023/10/15 10:18:52;;;;;;;1.23;0.80;;;;;;;10.59;68.88;100863.09;5053322;28;20471;-66
2023/10/15 10:21:22;;;;;;;1.33;1.23;;;;;;;10.73;67.81;100872.06;5044621;28;20491;-68
2023/10/15 10:23:54;;;;;;;1.38;0.70;;;;;;;10.60;67.73;100863.91;5047261;28;20456;-70
2023/10/15 10:26:27;;;;;;;1.00;0.67;;;;;;;10.77;68.48;100855.22;5045398;28;20221;-67
2023/10/15 10:28:59;;;;;;;2.80;1.30;;;;;;;10.84;67.03;100860.66;5050432;28;20449;-66
2023/10/15 10:31:31;;;;;;;3.70;1.27;;;;;;;11.12;65.54;100863.19;5056747;28;20799;-68
2023/10/15 10:34:03;;;;;;;0.80;0.50;;;;;;;11.79;64.59;100863.03;5046110;28;20467;-67
2023/10/15 10:36:37;;;;;;;5.17;1.83;;;;;;;12.21;62.12;100867.09;5048678;28;20800;-68
2023/10/15 10:39:18;;;;;;;1.00;0.70;;;;;;;12.17;61.60;100857.72;5046709;28;20438;-68
2023/10/15 10:41:50;;;;;;;1.30;0.53;;;;;;;12.47;61.88;100864.28;5047081;28;20816;-68
2023/10/15 10:44:40;;;;;;;1.20;0.60;;;;;;;12.54;60.18;100859.66;5047496;28;20428;-69
2023/10/15 10:47:33;;;;;;;0.80;0.50;;;;;;;11.81;60.15;100851.97;5047086;28;20537;-68
2023/10/15 10:50:04;;;;;;;2.17;0.70;;;;;;;11.41;61.11;100861.97;5047117;28;20779;-68
2023/10/15 10:52:36;;;;;;;1.00;0.63;;;;;;;11.43;62.79;100855.28;5043167;28;20815;-67
2023/10/15 10:55:31;;;;;;;1.47;1.13;;;;;;;11.68;62.63;100852.78;5053545;28;20398;-68
2023/10/15 10:58:03;;;;;;;1.27;0.70;;;;;;;11.66;62.24;100860.31;5032715;28;20839;-68
2023/10/15 11:00:32;;;;;;;1.43;0.70;;;;;;;11.57;62.60;100856.94;5049903;28;20437;-68
2023/10/15 11:03:06;;;;;;;2.33;0.53;;;;;;;11.66;63.71;100861.13;5044383;28;20563;-71
2023/10/15 11:05:36;;;;;;;2.50;0.73;;;;;;;11.80;62.81;100855.72;5052635;28;20409;-70
2023/10/15 11:08:16;;;;;;;1.00;0.60;;;;;;;11.53;63.18;100855.72;5047800;28;20402;-68
2023/10/15 11:10:47;;;;;;;6.03;0.97;;;;;;;11.20;64.39;100857.56;5046372;28;20426;-68
2023/10/15 11:13:16;;;;;;;0.90;0.50;;;;;;;11.39;63.88;100853.22;5046637;28;20520;-66
2023/10/15 11:15:46;;;;;;;5.80;1.60;;;;;;;11.48;62.30;100846.53;5049283;28;20409;-67
2023/10/15 11:18:21;;;;;;;1.07;0.60;;;;;;;11.73;62.17;100851.13;5045726;28;20542;-68
2023/10/15 11:20:52;;;;;;;3.77;2.80;;;;;;;11.73;61.76;100856.56;5052597;28;20442;-68
2023/10/15 11:23:23;;;;;;;1.80;0.60;;;;;;;11.70;61.94;100856.13;5044452;28;20588;-68
2023/10/15 11:25:54;;;;;;;0.80;0.40;;;;;;;11.65;61.20;100854.03;5046690;28;20431;-67
2023/10/15 11:28:25;;;;;;;2.10;0.50;;;;;;;11.86;60.92;100865.72;5047622;28;20418;-68
2023/10/15 11:30:55;;;;;;;1.10;0.77;;;;;;;11.68;59.97;100859.03;5051635;28;20463;-67
2023/10/15 11:33:28;;;;;;;0.87;0.60;;;;;;;11.71;59.90;100855.88;5046368;28;20486;-67
2023/10/15 11:35:59;;;;;;;2.23;0.57;;;;;;;11.81;60.34;100852.81;5051577;28;20521;-67
2023/10/15 11:38:34;;;;;;;0.90;0.67;;;;;;;11.36;60.44;100856.34;5043569;28;20501;-67
2023/10/15 11:41:04;;;;;;;1.20;0.80;;;;;;;11.03;60.86;100849.03;5049197;28;20805;-68
2023/10/15 11:43:33;;;;;;;1.37;0.83;;;;;;;11.09;61.65;100858.19;5047370;28;20451;-68
2023/10/15 11:46:07;;;;;;;4.20;0.60;;;;;;;11.38;60.48;100852.38;5052374;28;20397;-68
2023/10/15 11:48:38;;;;;;;2.40;0.60;;;;;;;11.71;59.94;100860.50;5050098;28;20389;-66
2023/10/15 11:51:08;;;;;;;2.20;0.73;;;;;;;11.59;58.49;100857.59;5049179;28;20428;-71
2023/10/15 11:53:41;;;;;;;0.90;0.60;;;;;;;11.69;57.40;100855.28;5046901;28;20541;-68
2023/10/15 11:56:16;;;;;;;1.20;0.60;;;;;;;11.89;57.80;100859.88;5046526;28;20830;-69